createdAt,value
2022-11-03T00:00:01.104Z,8.6
2022-11-03T00:01:01.124Z,8.5
2022-11-03T00:02:01.242Z,8.6
2022-11-03T00:03:02.086Z,8.5
2022-11-03T00:04:01.147Z,8.5
2022-11-03T00:05:01.144Z,8.5
2022-11-03T00:06:01.308Z,8.5
2022-11-03T00:07:01.447Z,8.4
2022-11-03T00:08:01.326Z,8.5
2022-11-03T00:09:02.408Z,8.5
2022-11-03T00:10:02.088Z,8.5
2022-11-03T00:11:02.718Z,8.5
2022-11-03T00:12:01.085Z,8.5
2022-11-03T00:13:01.098Z,8.4
2022-11-03T00:14:01.102Z,8.4
2022-11-03T00:15:01.105Z,8.4
2022-11-03T00:16:01.229Z,8.4
2022-11-03T00:17:01.035Z,8.3
2022-11-03T00:18:01.137Z,8.3
2022-11-03T00:19:01.149Z,8.3
2022-11-03T00:20:01.150Z,8.3
2022-11-03T00:21:01.047Z,8.2
2022-11-03T00:22:01.065Z,8.2
2022-11-03T00:23:01.058Z,8.2
2022-11-03T00:24:00.778Z,8.3
2022-11-03T00:25:00.400Z,8.3
2022-11-03T00:26:00.000Z,8.2
2022-11-03T00:26:59.632Z,8.1
2022-11-03T00:29:01.772Z,8.2
2022-11-03T00:30:01.875Z,8.2
2022-11-03T00:31:01.687Z,8.2
2022-11-03T00:32:01.068Z,8.2
2022-11-03T00:33:01.045Z,8.2
2022-11-03T00:34:01.068Z,8.3
2022-11-03T00:35:01.163Z,8.3
2022-11-03T00:36:01.138Z,8.3
2022-11-03T00:37:01.132Z,8.2
2022-11-03T00:38:01.157Z,8.3
2022-11-03T00:39:01.729Z,8.2
2022-11-03T00:40:02.398Z,8.2
2022-11-03T00:41:01.323Z,8.3
2022-11-03T00:42:02.478Z,8.3
2022-11-03T00:43:01.172Z,8.3
2022-11-03T00:44:01.098Z,8.3
2022-11-03T00:45:01.483Z,8.3
2022-11-03T00:46:01.104Z,8.3
2022-11-03T00:47:01.110Z,8.2
2022-11-03T00:48:01.130Z,8.3
2022-11-03T00:49:01.526Z,8.2
2022-11-03T00:50:01.157Z,8.2
2022-11-03T00:51:01.131Z,8.2
2022-11-03T00:52:01.312Z,8.2
2022-11-03T00:53:01.322Z,8.2
2022-11-03T00:54:01.391Z,8.2
2022-11-03T00:55:01.409Z,8.2
2022-11-03T00:56:01.941Z,8.2
2022-11-03T00:57:01.065Z,8.2
2022-11-03T00:58:01.413Z,8.1
2022-11-03T00:59:01.062Z,8.1
2022-11-03T01:00:01.053Z,8.1
2022-11-03T01:01:04.780Z,8.1
2022-11-03T01:02:02.084Z,8.1
2022-11-03T01:03:01.397Z,8.1
2022-11-03T01:04:01.574Z,8.1
2022-11-03T01:05:02.024Z,8.1
2022-11-03T01:06:07.564Z,8.1
2022-11-03T01:07:03.409Z,8
2022-11-03T01:08:01.748Z,8
2022-11-03T01:09:01.038Z,8
2022-11-03T01:10:01.046Z,8
2022-11-03T01:11:10.254Z,8
2022-11-03T01:12:01.153Z,8
2022-11-03T01:13:01.057Z,8
2022-11-03T01:14:01.083Z,8
2022-11-03T01:15:01.040Z,8
2022-11-03T01:16:12.895Z,8
2022-11-03T01:17:02.530Z,8
2022-11-03T01:18:01.097Z,8
2022-11-03T01:19:01.119Z,8
2022-11-03T01:20:01.151Z,8
2022-11-03T01:21:16.113Z,8
2022-11-03T01:22:04.195Z,7.9
2022-11-03T01:23:01.383Z,7.9
2022-11-03T01:24:01.098Z,7.9
2022-11-03T01:25:01.381Z,7.9
2022-11-03T01:26:01.155Z,7.8
2022-11-03T01:27:01.045Z,7.8
2022-11-03T01:28:01.144Z,7.8
2022-11-03T01:29:01.452Z,7.8
2022-11-03T01:30:01.073Z,7.7
2022-11-03T01:31:01.088Z,7.6
2022-11-03T01:32:01.113Z,7.6
2022-11-03T01:33:00.786Z,7.6
2022-11-03T01:34:00.388Z,7.6
2022-11-03T01:34:59.971Z,7.6
2022-11-03T01:35:59.575Z,7.6
2022-11-03T01:37:01.124Z,7.6
2022-11-03T01:38:01.437Z,7.6
2022-11-03T01:39:01.047Z,7.6
2022-11-03T01:40:01.046Z,7.6
2022-11-03T01:41:01.038Z,7.6
2022-11-03T01:42:01.149Z,7.6
2022-11-03T01:43:01.077Z,7.6
2022-11-03T01:44:03.780Z,7.6
2022-11-03T01:45:01.136Z,7.6
2022-11-03T01:46:01.752Z,7.6
2022-11-03T01:47:01.477Z,7.6
2022-11-03T01:48:01.520Z,7.6
2022-11-03T01:49:03.013Z,7.6
2022-11-03T01:50:01.065Z,7.6
2022-11-03T01:51:01.099Z,7.6
2022-11-03T01:52:01.072Z,7.6
2022-11-03T01:53:01.065Z,7.6
2022-11-03T01:54:01.140Z,7.6
2022-11-03T01:55:01.373Z,7.5
2022-11-03T01:56:01.399Z,7.6
2022-11-03T01:57:01.180Z,7.5
2022-11-03T01:58:01.055Z,7.6
2022-11-03T01:59:01.055Z,7.6
2022-11-03T02:00:01.065Z,7.5
2022-11-03T02:01:01.113Z,7.6
2022-11-03T02:02:01.370Z,7.6
2022-11-03T02:03:02.482Z,7.6
2022-11-03T02:04:01.416Z,7.6
2022-11-03T02:05:01.155Z,7.6
2022-11-03T02:06:01.243Z,7.6
2022-11-03T02:07:01.103Z,7.6
2022-11-03T02:08:01.212Z,7.6
2022-11-03T02:09:01.127Z,7.6
2022-11-03T02:10:01.138Z,7.6
2022-11-03T02:11:01.038Z,7.6
2022-11-03T02:12:01.572Z,7.6
2022-11-03T02:13:01.840Z,7.5
2022-11-03T02:14:00.806Z,7.6
2022-11-03T02:15:01.126Z,7.5
2022-11-03T02:16:01.067Z,7.6
2022-11-03T02:17:01.064Z,7.5
2022-11-03T02:18:01.083Z,7.6
2022-11-03T02:19:01.179Z,7.6
2022-11-03T02:20:01.198Z,7.5
2022-11-03T02:21:02.541Z,7.6
2022-11-03T02:22:01.920Z,7.6
2022-11-03T02:23:01.227Z,7.6
2022-11-03T02:24:01.040Z,7.6
2022-11-03T02:25:01.111Z,7.6
2022-11-03T02:26:01.161Z,7.6
2022-11-03T02:27:01.410Z,7.6
2022-11-03T02:28:01.430Z,7.6
2022-11-03T02:29:02.053Z,7.6
2022-11-03T02:30:02.076Z,7.6
2022-11-03T02:31:01.204Z,7.5
2022-11-03T02:32:01.056Z,7.5
2022-11-03T02:33:01.074Z,7.5
2022-11-03T02:34:01.046Z,7.5
2022-11-03T02:35:01.141Z,7.5
2022-11-03T02:36:01.138Z,7.5
2022-11-03T02:37:01.698Z,7.5
2022-11-03T02:38:01.275Z,7.5
2022-11-03T02:39:01.938Z,7.5
2022-11-03T02:40:01.109Z,7.4
2022-11-03T02:41:01.110Z,7.4
2022-11-03T02:42:06.505Z,7.4
2022-11-03T02:43:01.744Z,7.5
2022-11-03T02:44:01.157Z,7.5
2022-11-03T02:45:01.445Z,7.5
2022-11-03T02:46:02.315Z,7.5
2022-11-03T02:47:08.825Z,7.5
2022-11-03T02:48:01.949Z,7.5
2022-11-03T02:49:01.416Z,7.5
2022-11-03T02:50:02.345Z,7.5
2022-11-03T02:51:01.102Z,7.5
2022-11-03T02:52:13.448Z,7.5
2022-11-03T02:53:01.096Z,7.4
2022-11-03T02:54:01.049Z,7.4
2022-11-03T02:55:01.103Z,7.5
2022-11-03T02:56:01.111Z,7.5
2022-11-03T02:57:15.946Z,7.5
2022-11-03T02:58:00.706Z,7.5
2022-11-03T02:59:00.312Z,7.5
2022-11-03T03:00:00.330Z,7.5
2022-11-03T03:01:00.017Z,7.5
2022-11-03T03:01:59.878Z,7.5
2022-11-03T03:02:59.627Z,7.5
2022-11-03T03:04:01.426Z,7.5
2022-11-03T03:05:01.039Z,7.6
2022-11-03T03:06:01.049Z,7.6
2022-11-03T03:07:01.082Z,7.6
2022-11-03T03:08:01.114Z,7.6
2022-11-03T03:09:01.800Z,7.6
2022-11-03T03:10:01.444Z,7.6
2022-11-03T03:11:01.158Z,7.6
2022-11-03T03:12:01.055Z,7.6
2022-11-03T03:13:01.719Z,7.6
2022-11-03T03:14:01.050Z,7.6
2022-11-03T03:15:01.144Z,7.6
2022-11-03T03:16:01.149Z,7.6
2022-11-03T03:17:01.478Z,7.6
2022-11-03T03:18:00.809Z,7.6
2022-11-03T03:19:00.377Z,7.6
2022-11-03T03:20:00.017Z,7.6
2022-11-03T03:20:59.713Z,7.6
2022-11-03T03:22:01.363Z,7.6
2022-11-03T03:23:05.054Z,7.5
2022-11-03T03:24:02.067Z,7.5
2022-11-03T03:25:01.046Z,7.5
2022-11-03T03:26:00.782Z,7.5
2022-11-03T03:27:00.405Z,7.5
2022-11-03T03:28:00.068Z,7.5
2022-11-03T03:28:59.689Z,7.4
2022-11-03T03:30:01.415Z,7.4
2022-11-03T03:31:02.021Z,7.4
2022-11-03T03:32:00.719Z,7.4
2022-11-03T03:33:00.446Z,7.3
2022-11-03T03:34:04.782Z,7.3
2022-11-03T03:35:01.218Z,7.3
2022-11-03T03:36:01.175Z,7.3
2022-11-03T03:37:01.789Z,7.3
2022-11-03T03:38:01.294Z,7.2
2022-11-03T03:39:02.450Z,7.2
2022-11-03T03:40:16.661Z,7.2
2022-11-03T03:41:05.543Z,7.2
2022-11-03T03:42:01.135Z,7.1
2022-11-03T03:43:01.829Z,7.1
2022-11-03T03:44:01.775Z,7.1
2022-11-03T03:45:01.407Z,7.2
2022-11-03T03:46:02.030Z,7.2
2022-11-03T03:47:01.353Z,7.2
2022-11-03T03:48:01.145Z,7.2
2022-11-03T03:49:01.423Z,7.2
2022-11-03T03:50:02.053Z,7.2
2022-11-03T03:51:02.699Z,7.3
2022-11-03T03:52:02.480Z,7.3
2022-11-03T03:53:01.997Z,7.3
2022-11-03T03:54:01.070Z,7.3
2022-11-03T03:55:01.109Z,7.3
2022-11-03T03:56:01.175Z,7.3
2022-11-03T03:57:01.221Z,7.2
2022-11-03T03:58:01.868Z,7.2
2022-11-03T03:59:00.832Z,7.2
2022-11-03T04:00:00.498Z,7.2
2022-11-03T04:01:00.231Z,7.1
2022-11-03T04:02:00.026Z,7.1
2022-11-03T04:02:59.801Z,7.1
2022-11-03T04:04:02.504Z,7.1
2022-11-03T04:05:01.386Z,7.1
2022-11-03T04:06:01.143Z,7.1
2022-11-03T04:07:01.163Z,7.1
2022-11-03T04:08:01.176Z,7.1
2022-11-03T04:09:01.442Z,7.1
2022-11-03T04:10:01.087Z,7.1
2022-11-03T04:11:01.053Z,7.1
2022-11-03T04:12:02.017Z,7.1
2022-11-03T04:13:03.176Z,7.1
2022-11-03T04:14:04.030Z,7.1
2022-11-03T04:15:01.105Z,7
2022-11-03T04:16:01.144Z,7
2022-11-03T04:17:01.250Z,7
2022-11-03T04:18:06.277Z,7
2022-11-03T04:19:01.015Z,7
2022-11-03T04:20:01.131Z,7
2022-11-03T04:21:01.134Z,7
2022-11-03T04:22:01.139Z,7
2022-11-03T04:23:08.913Z,7
2022-11-03T04:24:02.638Z,7
2022-11-03T04:25:00.522Z,7
2022-11-03T04:26:00.419Z,7
2022-11-03T04:27:00.152Z,7
2022-11-03T04:28:10.880Z,6.9
2022-11-03T04:29:01.101Z,6.9
2022-11-03T04:30:01.097Z,6.8
2022-11-03T04:31:01.112Z,6.8
2022-11-03T04:32:01.428Z,6.8
2022-11-03T04:33:14.720Z,6.8
2022-11-03T04:34:01.131Z,6.8
2022-11-03T04:35:01.545Z,6.8
2022-11-03T04:36:01.251Z,6.8
2022-11-03T04:37:01.079Z,6.8
2022-11-03T04:38:01.070Z,6.7
2022-11-03T04:39:01.162Z,6.7
2022-11-03T04:40:01.998Z,6.6
2022-11-03T04:41:01.875Z,6.6
2022-11-03T04:42:01.750Z,6.6
2022-11-03T04:43:01.038Z,6.6
2022-11-03T04:44:01.053Z,6.6
2022-11-03T04:45:01.041Z,6.6
2022-11-03T04:46:01.089Z,6.6
2022-11-03T04:47:01.126Z,6.6
2022-11-03T04:48:01.108Z,6.6
2022-11-03T04:49:01.070Z,6.6
2022-11-03T04:50:01.121Z,6.6
2022-11-03T04:51:01.445Z,6.6
2022-11-03T04:52:01.050Z,6.6
2022-11-03T04:53:01.060Z,6.6
2022-11-03T04:54:01.270Z,6.6
2022-11-03T04:55:01.189Z,6.6
2022-11-03T04:56:06.103Z,6.6
2022-11-03T04:57:01.920Z,6.6
2022-11-03T04:58:01.145Z,6.6
2022-11-03T04:59:01.096Z,6.7
2022-11-03T05:00:01.502Z,6.8
2022-11-03T05:01:01.899Z,6.8
2022-11-03T05:02:01.340Z,6.8
2022-11-03T05:03:02.108Z,6.9
2022-11-03T05:04:01.051Z,6.9
2022-11-03T05:05:01.485Z,6.9
2022-11-03T05:06:02.552Z,6.9
2022-11-03T05:07:01.233Z,6.9
2022-11-03T05:08:01.124Z,6.9
2022-11-03T05:09:01.130Z,6.8
2022-11-03T05:10:01.176Z,6.8
2022-11-03T05:11:01.160Z,6.8
2022-11-03T05:12:01.047Z,6.8
2022-11-03T05:13:01.185Z,6.8
2022-11-03T05:14:01.202Z,6.8
2022-11-03T05:15:01.053Z,6.8
2022-11-03T05:16:01.095Z,6.8
2022-11-03T05:17:01.046Z,6.8
2022-11-03T05:18:01.886Z,6.7
2022-11-03T05:19:01.120Z,6.8
2022-11-03T05:20:01.059Z,6.8
2022-11-03T05:21:01.122Z,6.8
2022-11-03T05:22:01.124Z,6.8
2022-11-03T05:23:01.885Z,6.8
2022-11-03T05:24:01.214Z,6.7
2022-11-03T05:25:00.514Z,6.8
2022-11-03T05:26:00.223Z,6.8
2022-11-03T05:26:59.942Z,6.7
2022-11-03T05:27:59.608Z,6.8
2022-11-03T05:29:02.084Z,6.7
2022-11-03T05:30:01.457Z,6.7
2022-11-03T05:31:01.897Z,6.7
2022-11-03T05:32:01.427Z,6.6
2022-11-03T05:33:01.464Z,6.6
2022-11-03T05:34:01.101Z,6.6
2022-11-03T05:35:01.039Z,6.6
2022-11-03T05:36:01.056Z,6.6
2022-11-03T05:37:01.070Z,6.6
2022-11-03T05:38:01.058Z,6.6
2022-11-03T05:39:01.406Z,6.6
2022-11-03T05:40:02.235Z,6.6
2022-11-03T05:41:01.142Z,6.6
2022-11-03T05:42:01.164Z,6.6
2022-11-03T05:43:01.065Z,6.6
2022-11-03T05:44:00.667Z,6.6
2022-11-03T05:45:01.011Z,6.6
2022-11-03T05:46:01.129Z,6.6
2022-11-03T05:47:04.506Z,6.6
2022-11-03T05:48:01.141Z,6.6
2022-11-03T05:49:01.084Z,6.6
2022-11-03T05:50:01.480Z,6.6
2022-11-03T05:51:01.899Z,6.6
2022-11-03T05:52:01.144Z,6.6
2022-11-03T05:53:01.141Z,6.6
2022-11-03T05:54:04.281Z,6.6
2022-11-03T05:55:01.795Z,6.5
2022-11-03T05:56:01.860Z,6.6
2022-11-03T05:57:01.130Z,6.5
2022-11-03T05:58:01.157Z,6.5
2022-11-03T05:59:06.286Z,6.5
2022-11-03T06:00:01.267Z,6.5
2022-11-03T06:01:01.104Z,6.5
2022-11-03T06:02:01.338Z,6.5
2022-11-03T06:03:02.155Z,6.4
2022-11-03T06:04:09.855Z,6.4
2022-11-03T06:05:01.100Z,6.3
2022-11-03T06:06:01.225Z,6.3
2022-11-03T06:07:01.239Z,6.3
2022-11-03T06:08:01.924Z,6.3
2022-11-03T06:09:12.644Z,6.3
2022-11-03T06:10:02.201Z,6.3
2022-11-03T06:11:01.317Z,6.3
2022-11-03T06:12:01.645Z,6.3
2022-11-03T06:13:01.128Z,6.3
2022-11-03T06:14:18.654Z,6.4
2022-11-03T06:15:01.646Z,6.4
2022-11-03T06:16:02.166Z,6.4
2022-11-03T06:17:01.289Z,6.4
2022-11-03T06:18:02.248Z,6.5
2022-11-03T06:19:01.087Z,6.4
2022-11-03T06:20:01.744Z,6.5
2022-11-03T06:21:01.079Z,6.5
2022-11-03T06:22:01.095Z,6.5
2022-11-03T06:23:01.110Z,6.5
2022-11-03T06:24:01.106Z,6.5
2022-11-03T06:25:02.032Z,6.5
2022-11-03T06:26:00.998Z,6.5
2022-11-03T06:27:00.714Z,6.5
2022-11-03T06:28:00.424Z,6.5
2022-11-03T06:29:01.129Z,6.5
2022-11-03T06:30:01.066Z,6.5
2022-11-03T06:31:01.080Z,6.5
2022-11-03T06:32:00.764Z,6.5
2022-11-03T06:33:01.454Z,6.6
2022-11-03T06:34:01.574Z,6.6
2022-11-03T06:35:01.092Z,6.6
2022-11-03T06:36:01.051Z,6.6
2022-11-03T06:37:01.054Z,6.6
2022-11-03T06:38:01.080Z,6.6
2022-11-03T06:39:01.101Z,6.6
2022-11-03T06:40:01.148Z,6.7
2022-11-03T06:41:01.209Z,6.7
2022-11-03T06:42:01.190Z,6.8
2022-11-03T06:43:01.506Z,6.8
2022-11-03T06:44:01.316Z,6.8
2022-11-03T06:45:01.936Z,6.8
2022-11-03T06:46:01.147Z,6.8
2022-11-03T06:47:01.158Z,6.8
2022-11-03T06:48:01.158Z,6.8
2022-11-03T06:49:01.052Z,6.8
2022-11-03T06:50:01.466Z,6.8
2022-11-03T06:51:01.208Z,6.8
2022-11-03T06:52:00.683Z,6.8
2022-11-03T06:53:00.266Z,6.8
2022-11-03T06:54:00.166Z,6.7
2022-11-03T06:54:59.918Z,6.7
2022-11-03T06:55:59.561Z,6.7
2022-11-03T06:57:01.149Z,6.7
2022-11-03T06:58:01.113Z,6.6
2022-11-03T06:59:01.111Z,6.7
2022-11-03T07:00:20.492Z,6.6
2022-11-03T07:01:03.541Z,6.7
2022-11-03T07:02:01.366Z,6.7
2022-11-03T07:03:02.681Z,6.7
2022-11-03T07:04:02.478Z,6.7
2022-11-03T07:05:01.281Z,6.6
2022-11-03T07:06:02.438Z,6.6
2022-11-03T07:07:01.079Z,6.6
2022-11-03T07:08:01.075Z,6.6
2022-11-03T07:09:01.072Z,6.7
2022-11-03T07:10:01.296Z,6.7
2022-11-03T07:11:01.779Z,6.7
2022-11-03T07:12:00.852Z,6.7
2022-11-03T07:13:06.772Z,6.6
2022-11-03T07:14:02.244Z,6.7
2022-11-03T07:15:00.815Z,6.6
2022-11-03T07:16:01.142Z,6.7
2022-11-03T07:17:01.139Z,6.6
2022-11-03T07:18:01.132Z,6.7
2022-11-03T07:19:01.165Z,6.7
2022-11-03T07:20:01.296Z,6.8
2022-11-03T07:21:01.239Z,6.8
2022-11-03T07:22:01.259Z,6.7
2022-11-03T07:23:01.062Z,6.7
2022-11-03T07:24:01.090Z,6.8
2022-11-03T07:25:01.039Z,6.8
2022-11-03T07:26:01.097Z,6.8
2022-11-03T07:27:01.101Z,6.8
2022-11-03T07:28:05.360Z,6.8
2022-11-03T07:29:01.488Z,6.9
2022-11-03T07:30:03.147Z,6.9
2022-11-03T07:31:01.232Z,7
2022-11-03T07:32:00.937Z,7.1
2022-11-03T07:33:01.381Z,7.1
2022-11-03T07:34:02.102Z,7.1
2022-11-03T07:35:01.087Z,7.1
2022-11-03T07:36:14.981Z,7.1
2022-11-03T07:37:02.044Z,7.2
2022-11-03T07:38:01.874Z,7.2
2022-11-03T07:39:01.078Z,7.3
2022-11-03T07:40:03.401Z,7.3
2022-11-03T07:41:01.766Z,7.4
2022-11-03T07:42:01.147Z,7.5
2022-11-03T07:43:02.196Z,7.5
2022-11-03T07:44:01.107Z,7.5
2022-11-03T07:45:05.496Z,7.6
2022-11-03T07:46:01.501Z,7.6
2022-11-03T07:47:01.125Z,7.7
2022-11-03T07:48:04.296Z,7.7
2022-11-03T07:49:01.127Z,7.8
2022-11-03T07:50:09.318Z,7.8
2022-11-03T07:51:01.166Z,7.8
2022-11-03T07:52:01.159Z,7.9
2022-11-03T07:53:01.323Z,7.9
2022-11-03T07:54:01.195Z,7.9
2022-11-03T07:55:11.292Z,7.9
2022-11-03T07:56:01.337Z,8
2022-11-03T07:57:01.335Z,8
2022-11-03T07:58:01.052Z,8
2022-11-03T07:59:01.091Z,8
2022-11-03T08:00:14.280Z,8
2022-11-03T08:01:01.179Z,8.1
2022-11-03T08:02:01.485Z,8.1
2022-11-03T08:03:01.347Z,8.1
2022-11-03T08:04:01.363Z,8.1
2022-11-03T08:05:17.097Z,8.1
2022-11-03T08:06:03.697Z,8.1
2022-11-03T08:07:01.153Z,8.1
2022-11-03T08:08:01.172Z,8.1
2022-11-03T08:09:01.126Z,8.2
2022-11-03T08:10:01.180Z,8.2
2022-11-03T08:11:01.181Z,8.3
2022-11-03T08:12:05.746Z,8.3
2022-11-03T08:13:01.091Z,8.3
2022-11-03T08:14:01.619Z,8.3
2022-11-03T08:15:02.057Z,8.4
2022-11-03T08:16:01.338Z,8.4
2022-11-03T08:17:01.103Z,8.5
2022-11-03T08:18:01.785Z,8.5
2022-11-03T08:19:01.401Z,8.5
2022-11-03T08:20:01.351Z,8.5
2022-11-03T08:21:02.599Z,8.5
2022-11-03T08:22:01.160Z,8.5
2022-11-03T08:24:01.172Z,8.5
2022-11-03T08:25:01.161Z,8.6
2022-11-03T08:26:01.077Z,8.6
2022-11-03T08:27:01.759Z,8.6
2022-11-03T08:28:01.080Z,8.6
2022-11-03T08:29:01.052Z,8.6
2022-11-03T08:30:01.265Z,8.6
2022-11-03T08:31:12.259Z,8.7
2022-11-03T08:32:02.643Z,8.7
2022-11-03T08:33:01.004Z,8.8
2022-11-03T08:34:01.121Z,8.8
2022-11-03T08:35:01.117Z,8.8
2022-11-03T08:36:01.147Z,8.8
2022-11-03T08:37:02.635Z,8.9
2022-11-03T08:38:01.718Z,8.9
2022-11-03T08:39:01.299Z,8.9
2022-11-03T08:40:01.155Z,9
2022-11-03T08:41:01.964Z,9
2022-11-03T08:42:02.534Z,9
2022-11-03T08:43:01.092Z,9
2022-11-03T08:44:01.072Z,9.1
2022-11-03T08:45:01.086Z,9.1
2022-11-03T08:46:08.283Z,9.1
2022-11-03T08:47:01.518Z,9.1
2022-11-03T08:48:01.072Z,9.2
2022-11-03T08:49:03.970Z,9.3
2022-11-03T08:50:01.119Z,9.3
2022-11-03T08:51:02.378Z,9.3
2022-11-03T08:52:02.162Z,9.3
2022-11-03T08:53:01.233Z,9.3
2022-11-03T08:54:01.053Z,9.3
2022-11-03T08:55:01.157Z,9.4
2022-11-03T08:56:01.172Z,9.4
2022-11-03T08:57:01.869Z,9.4
2022-11-03T08:58:01.726Z,9.5
2022-11-03T08:59:01.149Z,9.5
2022-11-03T09:00:01.803Z,9.5
2022-11-03T09:01:00.980Z,9.5
2022-11-03T09:02:00.749Z,9.5
2022-11-03T09:03:00.473Z,9.6
2022-11-03T09:04:00.225Z,9.6
2022-11-03T09:05:00.098Z,9.6
2022-11-03T09:05:59.772Z,9.6
2022-11-03T09:07:02.484Z,9.7
2022-11-03T09:11:01.240Z,9.8
2022-11-03T09:12:01.557Z,9.8
2022-11-03T09:13:00.979Z,9.9
2022-11-03T09:14:01.041Z,9.9
2022-11-03T09:15:01.043Z,10
2022-11-03T09:16:01.124Z,10
2022-11-03T09:18:00.619Z,10.1
2022-11-03T09:19:00.329Z,10.1
2022-11-03T09:20:00.384Z,10.1
2022-11-03T09:21:00.406Z,10.1
2022-11-03T09:21:59.958Z,10.1
2022-11-03T09:22:59.601Z,10.2
2022-11-03T09:24:01.843Z,10.2
2022-11-03T09:25:01.240Z,10.3
2022-11-03T09:26:01.206Z,10.3
2022-11-03T09:27:02.475Z,10.3
2022-11-03T09:28:01.146Z,10.3
2022-11-03T09:29:01.163Z,10.4
2022-11-03T09:30:14.148Z,10.5
2022-11-03T09:31:01.149Z,10.5
2022-11-03T09:32:01.207Z,10.5
2022-11-03T09:33:00.787Z,10.6
2022-11-03T09:34:00.416Z,10.6
2022-11-03T09:35:00.050Z,10.6
2022-11-03T09:35:59.599Z,10.6
2022-11-03T09:37:01.810Z,10.6
2022-11-03T09:38:02.135Z,10.7
2022-11-03T09:39:01.796Z,10.7
2022-11-03T09:40:01.738Z,10.7
2022-11-03T09:41:01.331Z,10.7
2022-11-03T09:42:01.531Z,10.7
2022-11-03T09:43:02.587Z,10.7
2022-11-03T09:44:01.176Z,10.8
2022-11-03T09:45:01.262Z,10.8
2022-11-03T09:46:02.508Z,10.8
2022-11-03T09:47:01.461Z,10.8
2022-11-03T09:48:02.508Z,10.8
2022-11-03T09:49:01.082Z,10.8
2022-11-03T09:50:01.058Z,10.8
2022-11-03T09:51:02.515Z,10.8
2022-11-03T09:52:01.942Z,10.8
2022-11-03T09:53:01.123Z,10.9
2022-11-03T09:54:01.107Z,10.9
2022-11-03T09:55:01.124Z,10.9
2022-11-03T09:56:01.128Z,11
2022-11-03T09:57:01.920Z,11
2022-11-03T09:58:02.588Z,11
2022-11-03T09:59:01.129Z,11
2022-11-03T10:00:01.134Z,11.1
2022-11-03T10:01:01.261Z,11.1
2022-11-03T10:02:02.113Z,11.1
2022-11-03T10:03:06.222Z,11.2
2022-11-03T10:04:01.862Z,11.3
2022-11-03T10:05:08.224Z,11.3
2022-11-03T10:06:01.360Z,11.3
2022-11-03T10:07:02.185Z,11.3
2022-11-03T10:08:08.391Z,11.3
2022-11-03T10:09:01.924Z,11.3
2022-11-03T10:10:01.099Z,11.3
2022-11-03T10:11:01.144Z,11.3
2022-11-03T10:12:01.517Z,11.3
2022-11-03T10:13:10.462Z,11.3
2022-11-03T10:14:01.134Z,11.3
2022-11-03T10:15:01.328Z,11.3
2022-11-03T10:16:02.582Z,11.4
2022-11-03T10:17:01.886Z,11.4
2022-11-03T10:18:13.503Z,11.5
2022-11-03T10:19:01.072Z,11.5
2022-11-03T10:20:01.077Z,11.5
2022-11-03T10:21:01.064Z,11.5
2022-11-03T10:22:01.097Z,11.5
2022-11-03T10:23:15.939Z,11.6
2022-11-03T10:24:01.485Z,11.6
2022-11-03T10:25:01.198Z,11.6
2022-11-03T10:26:01.109Z,11.6
2022-11-03T10:27:01.102Z,11.6
2022-11-03T10:28:01.108Z,11.6
2022-11-03T10:29:01.126Z,11.6
2022-11-03T10:30:01.155Z,11.6
2022-11-03T10:31:16.235Z,11.6
2022-11-03T10:32:01.144Z,11.7
2022-11-03T10:33:00.831Z,11.7
2022-11-03T10:34:00.437Z,11.8
2022-11-03T10:35:00.263Z,11.8
2022-11-03T10:35:59.836Z,11.8
2022-11-03T10:37:01.729Z,11.8
2022-11-03T10:38:01.823Z,11.8
2022-11-03T10:39:01.440Z,11.8
2022-11-03T10:40:02.096Z,11.8
2022-11-03T10:41:01.082Z,11.8
2022-11-03T10:42:01.106Z,11.9
2022-11-03T10:43:01.104Z,11.9
2022-11-03T10:44:01.032Z,12
2022-11-03T10:45:01.040Z,12
2022-11-03T10:46:01.133Z,12
2022-11-03T10:47:01.036Z,12.1
2022-11-03T10:48:01.213Z,12.1
2022-11-03T10:49:01.321Z,12.1
2022-11-03T10:50:01.041Z,12.1
2022-11-03T10:51:01.053Z,12.1
2022-11-03T10:52:01.056Z,12.1
2022-11-03T10:53:00.874Z,12.1
2022-11-03T10:54:00.461Z,12.1
2022-11-03T10:55:00.072Z,12.2
2022-11-03T10:55:59.971Z,12.2
2022-11-03T10:56:59.547Z,12.3
2022-11-03T10:58:01.488Z,12.3
2022-11-03T10:59:01.053Z,12.3
2022-11-03T11:00:01.107Z,12.3
2022-11-03T11:01:01.224Z,12.3
2022-11-03T11:02:01.912Z,12.3
2022-11-03T11:03:01.324Z,12.3
2022-11-03T11:04:01.446Z,12.3
2022-11-03T11:05:02.080Z,12.3
2022-11-03T11:06:01.302Z,12.3
2022-11-03T11:07:00.673Z,12.3
2022-11-03T11:08:00.329Z,12.3
2022-11-03T11:09:00.298Z,12.4
2022-11-03T11:09:59.971Z,12.4
2022-11-03T11:10:59.838Z,12.4
2022-11-03T11:12:01.532Z,12.5
2022-11-03T11:13:01.478Z,12.5
2022-11-03T11:14:01.104Z,12.5
2022-11-03T11:15:01.102Z,12.6
2022-11-03T11:16:01.127Z,12.6
2022-11-03T11:17:01.190Z,12.6
2022-11-03T11:18:01.058Z,12.6
2022-11-03T11:19:02.438Z,12.6
2022-11-03T11:20:01.152Z,12.7
2022-11-03T11:21:01.892Z,12.7
2022-11-03T11:22:01.951Z,12.7
2022-11-03T11:23:01.495Z,12.7
2022-11-03T11:24:00.665Z,12.7
2022-11-03T11:25:00.300Z,12.7
2022-11-03T11:25:59.943Z,12.7
2022-11-03T11:26:59.647Z,12.7
2022-11-03T11:28:04.408Z,12.7
2022-11-03T11:29:01.799Z,12.8
2022-11-03T11:30:01.279Z,12.7
2022-11-03T11:31:01.244Z,12.8
2022-11-03T11:32:01.475Z,12.8
2022-11-03T11:33:01.001Z,12.8
2022-11-03T11:34:01.119Z,12.8
2022-11-03T11:35:01.051Z,12.8
2022-11-03T11:36:01.050Z,12.9
2022-11-03T11:37:01.139Z,12.9
2022-11-03T11:38:01.138Z,13
2022-11-03T11:39:01.787Z,13
2022-11-03T11:40:01.226Z,13
2022-11-03T11:41:01.288Z,13
2022-11-03T11:42:01.243Z,13
2022-11-03T11:43:02.052Z,13.1
2022-11-03T11:44:03.522Z,13.1
2022-11-03T11:45:01.078Z,13
2022-11-03T11:46:00.784Z,13
2022-11-03T11:47:00.511Z,13.1
2022-11-03T11:48:00.099Z,13
2022-11-03T11:49:05.182Z,13.1
2022-11-03T11:50:01.422Z,13.1
2022-11-03T11:51:01.279Z,13.1
2022-11-03T11:52:02.073Z,13.1
2022-11-03T11:53:02.220Z,13.1
2022-11-03T11:54:17.614Z,13.1
2022-11-03T11:55:01.479Z,13.1
2022-11-03T11:56:01.073Z,13.1
2022-11-03T11:57:01.059Z,13.1
2022-11-03T11:58:01.067Z,13.1
2022-11-03T11:59:11.206Z,13.1
2022-11-03T12:00:01.480Z,13.2
2022-11-03T12:01:02.303Z,13.3
2022-11-03T12:02:01.439Z,13.3
2022-11-03T12:03:00.689Z,13.3
2022-11-03T12:04:13.049Z,13.3
2022-11-03T12:05:01.416Z,13.3
2022-11-03T12:06:02.344Z,13.3
2022-11-03T12:07:01.905Z,13.3
2022-11-03T12:08:01.053Z,13.3
2022-11-03T12:09:15.649Z,13.3
2022-11-03T12:10:01.447Z,13.3
2022-11-03T12:11:01.441Z,13.3
2022-11-03T12:12:08.081Z,13.3
2022-11-03T12:13:01.154Z,13.3
2022-11-03T12:14:01.979Z,13.3
2022-11-03T12:15:01.071Z,13.3
2022-11-03T12:16:01.186Z,13.3
2022-11-03T12:17:01.104Z,13.4
2022-11-03T12:18:01.086Z,13.3
2022-11-03T12:19:01.040Z,13.3
2022-11-03T12:20:01.047Z,13.3
2022-11-03T12:21:01.112Z,13.3
2022-11-03T12:22:01.182Z,13.3
2022-11-03T12:23:01.874Z,13.3
2022-11-03T12:24:01.055Z,13.3
2022-11-03T12:25:01.531Z,13.3
2022-11-03T12:26:01.280Z,13.3
2022-11-03T12:27:01.223Z,13.3
2022-11-03T12:28:01.898Z,13.3
2022-11-03T12:29:01.084Z,13.3
2022-11-03T12:30:01.093Z,13.3
2022-11-03T12:31:01.156Z,13.4
2022-11-03T12:32:01.113Z,13.4
2022-11-03T12:33:00.558Z,13.5
2022-11-03T12:34:00.290Z,13.5
2022-11-03T12:34:59.880Z,13.5
2022-11-03T12:35:59.556Z,13.6
2022-11-03T12:37:01.141Z,13.6
2022-11-03T12:38:01.196Z,13.6
2022-11-03T12:39:01.121Z,13.6
2022-11-03T12:40:01.520Z,13.7
2022-11-03T12:41:01.516Z,13.7
2022-11-03T12:42:02.618Z,13.7
2022-11-03T12:43:01.092Z,13.8
2022-11-03T12:44:01.128Z,13.8
2022-11-03T12:45:02.305Z,13.8
2022-11-03T12:46:01.983Z,13.8
2022-11-03T12:47:01.064Z,13.8
2022-11-03T12:48:01.119Z,13.8
2022-11-03T12:49:01.080Z,13.8
2022-11-03T12:50:07.907Z,13.8
2022-11-03T12:51:01.046Z,13.9
2022-11-03T12:52:06.778Z,13.9
2022-11-03T12:53:01.074Z,13.9
2022-11-03T12:54:01.932Z,14
2022-11-03T12:55:01.864Z,13.9
2022-11-03T12:56:01.158Z,14
2022-11-03T12:57:01.155Z,14
2022-11-03T12:58:01.853Z,14
2022-11-03T12:59:01.862Z,14
2022-11-03T13:00:01.456Z,14
2022-11-03T13:01:02.256Z,14
2022-11-03T13:02:01.606Z,14
2022-11-03T13:03:02.195Z,14
2022-11-03T13:04:01.786Z,13.9
2022-11-03T13:05:01.791Z,13.8
2022-11-03T13:06:02.409Z,13.9
2022-11-03T13:07:01.109Z,13.8
2022-11-03T13:08:01.128Z,13.8
2022-11-03T13:09:03.776Z,13.8
2022-11-03T13:10:02.144Z,13.8
2022-11-03T13:11:01.534Z,13.8
2022-11-03T13:12:01.072Z,13.7
2022-11-03T13:13:01.064Z,13.8
2022-11-03T13:14:00.712Z,13.8
2022-11-03T13:15:00.337Z,13.7
2022-11-03T13:16:00.240Z,13.7
2022-11-03T13:16:59.952Z,13.7
2022-11-03T13:18:12.916Z,13.7
2022-11-03T13:19:01.183Z,13.7
2022-11-03T13:20:01.197Z,13.7
2022-11-03T13:21:01.089Z,13.7
2022-11-03T13:22:01.121Z,13.7
2022-11-03T13:23:01.107Z,13.6
2022-11-03T13:24:01.122Z,13.7
2022-11-03T13:25:01.364Z,13.7
2022-11-03T13:26:02.285Z,13.7
2022-11-03T13:27:01.069Z,13.7
2022-11-03T13:28:01.124Z,13.7
2022-11-03T13:29:01.033Z,13.7
2022-11-03T13:30:04.670Z,13.7
2022-11-03T13:31:01.713Z,13.7
2022-11-03T13:32:01.422Z,13.7
2022-11-03T13:33:01.072Z,13.7
2022-11-03T13:34:01.070Z,13.6
2022-11-03T13:35:13.407Z,13.6
2022-11-03T13:36:01.187Z,13.6
2022-11-03T13:37:01.056Z,13.6
2022-11-03T13:38:01.082Z,13.6
2022-11-03T13:39:01.260Z,13.6
2022-11-03T13:40:29.396Z,13.6
2022-11-03T13:41:08.363Z,13.6
2022-11-03T13:42:02.058Z,13.6
2022-11-03T13:43:01.120Z,13.5
2022-11-03T13:44:01.130Z,13.5
2022-11-03T13:45:14.809Z,13.5
2022-11-03T13:46:01.457Z,13.5
2022-11-03T13:47:01.041Z,13.5